createdAt,value
2019-01-17T00:01:23.443Z,3.48
2019-01-17T00:04:11.538Z,3.59
2019-01-17T00:06:47.289Z,3.66
2019-01-17T00:09:20.639Z,3.58
2019-01-17T00:12:11.028Z,3.40
2019-01-17T00:14:47.430Z,3.41
2019-01-17T00:17:23.525Z,3.43
2019-01-17T00:20:12.261Z,3.55
2019-01-17T00:22:42.599Z,3.64
2019-01-17T00:25:32.093Z,3.63
2019-01-17T00:28:19.267Z,3.62
2019-01-17T00:31:07.959Z,3.48
2019-01-17T00:33:40.064Z,3.19
2019-01-17T00:36:10.390Z,3.16
2019-01-17T00:38:40.656Z,3.36
2019-01-17T00:41:16.860Z,3.47
2019-01-17T00:43:47.081Z,3.39
2019-01-17T00:46:18.199Z,3.40
2019-01-17T00:48:48.420Z,3.29
2019-01-17T00:51:37.137Z,3.20
2019-01-17T00:54:09.983Z,3.25
2019-01-17T00:56:56.484Z,3.12
2019-01-17T00:59:38.951Z,3.08
2019-01-17T01:02:27.292Z,3.05
2019-01-17T01:04:58.930Z,2.98
2019-01-17T01:07:38.541Z,3.03
2019-01-17T01:10:17.569Z,3.02
2019-01-17T01:12:49.309Z,2.93
2019-01-17T01:15:37.098Z,2.77
2019-01-17T01:18:11.758Z,2.61
2019-01-17T01:20:42.182Z,2.46
2019-01-17T01:23:30.616Z,2.28
2019-01-17T01:26:06.878Z,2.19
2019-01-17T01:28:37.261Z,2.17
2019-01-17T01:31:16.579Z,2.26
2019-01-17T01:34:00.418Z,2.29
2019-01-17T01:36:30.716Z,2.43
2019-01-17T01:39:01.055Z,2.52
2019-01-17T01:41:32.496Z,2.55
2019-01-17T01:44:22.381Z,2.58
2019-01-17T01:46:52.731Z,2.56
2019-01-17T01:49:35.394Z,2.48
2019-01-17T01:52:05.761Z,2.50
2019-01-17T01:54:34.357Z,2.58
2019-01-17T01:57:04.099Z,2.67
2019-01-17T01:59:32.688Z,2.79
2019-01-17T02:02:01.309Z,2.83
2019-01-17T02:04:30.047Z,3.03
2019-01-17T02:06:58.786Z,3.15
2019-01-17T02:09:27.406Z,3.21
2019-01-17T02:11:56.081Z,3.29
2019-01-17T02:14:25.014Z,3.29
2019-01-17T02:16:53.846Z,3.20
2019-01-17T02:19:22.449Z,3.04
2019-01-17T02:21:51.116Z,2.97
2019-01-17T02:24:19.593Z,2.98
2019-01-17T02:26:48.256Z,2.94
2019-01-17T02:29:16.929Z,2.88
2019-01-17T02:31:45.928Z,2.84
2019-01-17T02:34:14.478Z,2.86
2019-01-17T02:36:43.875Z,2.91
2019-01-17T02:39:12.492Z,3.03
2019-01-17T02:41:41.096Z,3.06
2019-01-17T02:44:09.718Z,3.14
2019-01-17T02:46:38.279Z,3.17
2019-01-17T02:49:06.905Z,3.23
2019-01-17T02:51:35.445Z,3.48
2019-01-17T02:54:04.295Z,3.75
2019-01-17T02:56:32.905Z,3.75
2019-01-17T02:59:01.515Z,3.74
2019-01-17T03:01:30.523Z,3.58
2019-01-17T03:03:59.126Z,3.37
2019-01-17T03:06:30.892Z,3.25
2019-01-17T03:08:59.560Z,3.23
2019-01-17T03:11:28.218Z,3.37
2019-01-17T03:13:56.878Z,3.60
2019-01-17T03:16:25.472Z,3.70
2019-01-17T03:18:54.134Z,3.78
2019-01-17T03:21:22.791Z,3.81
2019-01-17T03:23:51.456Z,3.79
2019-01-17T03:26:24.389Z,3.72
2019-01-17T03:28:52.983Z,3.64
2019-01-17T03:31:22.884Z,3.65
2019-01-17T03:33:52.009Z,3.70
2019-01-17T03:36:20.617Z,3.81
2019-01-17T03:38:49.278Z,3.76
2019-01-17T03:41:17.961Z,3.79
2019-01-17T03:43:46.614Z,3.80
2019-01-17T03:46:15.341Z,3.88
2019-01-17T03:48:44.199Z,3.92
2019-01-17T03:51:12.843Z,4.05
2019-01-17T03:53:42.943Z,4.14
2019-01-17T03:56:11.977Z,4.13
2019-01-17T03:58:40.595Z,4.06
2019-01-17T04:01:09.227Z,4.06
2019-01-17T04:03:37.783Z,4.09
2019-01-17T04:06:06.394Z,4.14
2019-01-17T04:08:35.059Z,4.35
2019-01-17T04:11:03.678Z,4.44
2019-01-17T04:13:32.224Z,4.58
2019-01-17T04:16:00.900Z,4.71
2019-01-17T04:18:35.249Z,4.78
2019-01-17T04:21:03.912Z,4.80
2019-01-17T04:23:32.584Z,4.83
2019-01-17T04:26:01.131Z,4.85
2019-01-17T04:28:29.786Z,4.96
2019-01-17T04:30:58.463Z,4.98
2019-01-17T04:33:33.164Z,4.84
2019-01-17T04:36:03.559Z,4.59
2019-01-17T04:38:32.120Z,4.23
2019-01-17T04:41:00.753Z,4.00
2019-01-17T04:43:29.410Z,3.80
2019-01-17T04:46:04.100Z,3.62
2019-01-17T04:48:32.834Z,3.48
2019-01-17T04:51:02.017Z,3.35
2019-01-17T04:53:30.589Z,3.37
2019-01-17T04:56:01.927Z,3.56
2019-01-17T04:58:30.571Z,3.73
2019-01-17T05:00:59.125Z,3.89
2019-01-17T05:03:27.787Z,4.00
2019-01-17T05:05:56.403Z,4.05
2019-01-17T05:08:25.029Z,4.17
2019-01-17T05:10:53.646Z,4.14
2019-01-17T05:13:22.198Z,4.18
2019-01-17T05:15:50.855Z,4.07
2019-01-17T05:18:19.472Z,3.95
2019-01-17T05:20:48.286Z,3.80
2019-01-17T05:23:23.282Z,3.62
2019-01-17T05:25:51.879Z,3.47
2019-01-17T05:28:26.128Z,3.36
2019-01-17T05:30:54.864Z,3.20
2019-01-17T05:33:23.571Z,3.21
2019-01-17T05:35:55.724Z,3.10
2019-01-17T05:38:24.466Z,2.87
2019-01-17T05:40:54.117Z,2.68
2019-01-17T05:43:22.755Z,2.67
2019-01-17T05:45:51.362Z,2.80
2019-01-17T05:48:20.314Z,2.78
2019-01-17T05:50:48.952Z,2.56
2019-01-17T05:53:19.151Z,2.42
2019-01-17T05:55:47.760Z,2.27
2019-01-17T05:58:16.412Z,2.11
2019-01-17T06:00:45.015Z,2.05
2019-01-17T06:03:19.887Z,2.01
2019-01-17T06:05:52.765Z,2.06
2019-01-17T06:08:24.371Z,2.33
2019-01-17T06:10:53.501Z,2.54
2019-01-17T06:13:22.194Z,2.81
2019-01-17T06:15:51.708Z,3.19
2019-01-17T06:18:20.276Z,3.53
2019-01-17T06:20:52.025Z,3.74
2019-01-17T06:23:20.669Z,3.83
2019-01-17T06:25:52.132Z,3.86
2019-01-17T06:28:20.804Z,3.81
2019-01-17T06:30:52.124Z,3.84
2019-01-17T06:33:20.802Z,3.75
2019-01-17T06:35:49.430Z,3.57
2019-01-17T06:38:22.286Z,3.43
2019-01-17T06:40:50.914Z,3.25
2019-01-17T06:43:19.563Z,3.10
2019-01-17T06:45:48.936Z,3.16
2019-01-17T06:48:17.601Z,3.36
2019-01-17T06:50:46.228Z,3.30
2019-01-17T06:53:15.328Z,3.13
2019-01-17T06:55:44.008Z,3.17
2019-01-17T06:58:12.553Z,3.24
2019-01-17T07:00:43.995Z,3.32
2019-01-17T07:03:12.620Z,3.29
2019-01-17T07:05:41.286Z,3.26
2019-01-17T07:08:09.970Z,3.40
2019-01-17T07:10:42.717Z,3.56
2019-01-17T07:13:11.376Z,3.87
2019-01-17T07:15:40.007Z,4.07
2019-01-17T07:18:08.680Z,3.93
2019-01-17T07:20:37.303Z,4.10
2019-01-17T07:23:09.772Z,4.23
2019-01-17T07:25:41.348Z,5.44
2019-01-17T07:28:13.156Z,7.04
2019-01-17T07:30:41.777Z,8.71
2019-01-17T07:33:10.406Z,9.52
2019-01-17T07:35:39.065Z,9.61
2019-01-17T07:38:07.816Z,9.89
2019-01-17T07:40:39.414Z,11.17
2019-01-17T07:43:08.041Z,12.30
2019-01-17T07:45:36.734Z,12.55
2019-01-17T07:48:08.068Z,13.56
2019-01-17T07:50:36.682Z,13.94
2019-01-17T07:53:08.360Z,13.78
2019-01-17T07:55:37.041Z,14.14
2019-01-17T07:58:10.616Z,14.80
2019-01-17T08:00:39.594Z,14.90
2019-01-17T08:03:08.638Z,14.95
2019-01-17T08:05:38.907Z,14.88
2019-01-17T08:08:07.591Z,14.71
2019-01-17T08:10:36.179Z,15.17
2019-01-17T08:13:07.023Z,15.38
2019-01-17T08:15:35.729Z,16.39
2019-01-17T08:18:37.720Z,16.90
2019-01-17T08:21:31.689Z,17.08
2019-01-17T08:24:36.523Z,17.46
2019-01-17T08:27:24.261Z,18.25
2019-01-17T08:30:28.993Z,18.25
2019-01-17T08:33:17.135Z,17.92
2019-01-17T08:36:21.748Z,18.75
2019-01-17T08:39:09.814Z,18.69
2019-01-17T08:42:17.864Z,18.57
2019-01-17T08:45:05.759Z,19.20
2019-01-17T08:48:10.835Z,19.61
2019-01-17T08:51:01.859Z,20.09
2019-01-17T08:54:09.612Z,20.77
2019-01-17T08:57:14.158Z,20.62
2019-01-17T09:00:18.873Z,19.68
2019-01-17T09:03:23.634Z,20.27
2019-01-17T09:06:11.516Z,21.65
2019-01-17T09:09:16.329Z,22.36
2019-01-17T09:12:07.227Z,23.64
2019-01-17T09:15:11.812Z,24.02
2019-01-17T09:18:00.164Z,24.96
2019-01-17T09:21:05.161Z,24.14
2019-01-17T09:23:53.459Z,23.21
2019-01-17T09:26:58.390Z,22.73
2019-01-17T09:30:02.872Z,22.50
2019-01-17T09:32:50.763Z,22.79
2019-01-17T09:35:55.581Z,22.66
2019-01-17T09:38:43.747Z,22.26
2019-01-17T09:41:48.570Z,23.21
2019-01-17T09:44:36.294Z,24.48
2019-01-17T09:47:41.148Z,23.96
2019-01-17T09:50:29.106Z,24.67
2019-01-17T09:53:34.054Z,25.11
2019-01-17T09:56:25.229Z,25.64
2019-01-17T09:59:29.711Z,25.10
2019-01-17T10:02:18.502Z,25.95
2019-01-17T10:05:23.103Z,25.78
2019-01-17T10:08:11.589Z,24.81
2019-01-17T10:11:16.547Z,24.83
2019-01-17T10:14:04.275Z,26.62
2019-01-17T10:17:09.561Z,25.87
2019-01-17T10:19:57.806Z,25.31
2019-01-17T10:23:02.417Z,26.46
2019-01-17T10:26:07.601Z,27.62
2019-01-17T10:28:56.514Z,26.81
2019-01-17T10:32:01.086Z,27.35
2019-01-17T10:35:05.441Z,26.35
2019-01-17T10:38:10.111Z,27.03
2019-01-17T10:41:15.098Z,27.93
2019-01-17T10:44:20.007Z,28.80
2019-01-17T10:47:10.426Z,28.49
2019-01-17T10:50:15.627Z,29.50
2019-01-17T10:53:03.455Z,29.64
2019-01-17T10:56:08.200Z,29.61
2019-01-17T10:59:12.835Z,29.02
2019-01-17T11:02:01.128Z,28.75
2019-01-17T11:05:09.295Z,27.37
2019-01-17T11:08:13.743Z,26.32
2019-01-17T11:11:18.543Z,26.71
2019-01-17T11:14:06.604Z,28.09
2019-01-17T11:17:11.388Z,29.12
2019-01-17T11:20:16.489Z,28.68
2019-01-17T11:23:04.364Z,26.80
2019-01-17T11:26:08.939Z,27.93
2019-01-17T11:29:13.784Z,29.05
2019-01-17T11:32:01.702Z,29.87
2019-01-17T11:35:06.506Z,30.81
2019-01-17T11:38:11.575Z,30.49
2019-01-17T11:41:16.388Z,31.57
2019-01-17T11:44:21.162Z,31.89
2019-01-17T11:47:09.172Z,32.94
2019-01-17T11:50:13.814Z,32.31
2019-01-17T11:53:18.434Z,32.68
2019-01-17T11:56:23.247Z,32.58
2019-01-17T11:59:28.821Z,31.25
2019-01-17T12:02:39.004Z,32.30
2019-01-17T12:05:25.873Z,32.29
2019-01-17T12:08:30.584Z,31.41
2019-01-17T12:11:18.731Z,31.97
2019-01-17T12:14:24.176Z,31.35
2019-01-17T12:17:13.556Z,32.02
2019-01-17T12:20:18.143Z,32.18
2019-01-17T12:23:06.265Z,31.74
2019-01-17T12:26:11.223Z,32.00
2019-01-17T12:28:59.220Z,31.57
2019-01-17T12:32:03.892Z,30.47
2019-01-17T12:34:52.107Z,32.20
2019-01-17T12:37:56.828Z,31.93
2019-01-17T12:40:47.514Z,31.41
2019-01-17T12:43:52.337Z,30.76
2019-01-17T12:46:43.308Z,31.11
2019-01-17T12:49:47.766Z,31.21
2019-01-17T12:52:52.294Z,31.28
2019-01-17T12:55:40.293Z,31.57
2019-01-17T12:58:44.897Z,31.45
2019-01-17T13:01:33.249Z,32.40
2019-01-17T13:04:37.862Z,31.87
2019-01-17T13:07:25.591Z,31.93
2019-01-17T13:10:30.221Z,31.85
2019-01-17T13:13:18.206Z,30.01
2019-01-17T13:16:22.780Z,29.44
2019-01-17T13:19:10.793Z,29.98
2019-01-17T13:22:15.582Z,30.27
2019-01-17T13:25:04.150Z,30.56
2019-01-17T13:28:09.380Z,30.09
2019-01-17T13:30:57.390Z,29.63
2019-01-17T13:34:01.872Z,29.93
2019-01-17T13:36:49.928Z,28.78
2019-01-17T13:39:54.859Z,29.28
2019-01-17T13:42:43.241Z,29.56
2019-01-17T13:45:47.987Z,28.96
2019-01-17T13:48:16.612Z,29.02
2019-01-17T13:50:48.092Z,30.02
2019-01-17T13:53:16.719Z,29.76
2019-01-17T13:55:45.313Z,30.14
2019-01-17T13:58:16.936Z,29.30
2019-01-17T14:00:45.509Z,29.05
2019-01-17T14:03:14.122Z,28.72
2019-01-17T14:05:42.915Z,28.52
2019-01-17T14:08:11.577Z,28.31
2019-01-17T14:10:43.227Z,28.24
2019-01-17T14:13:11.970Z,28.68
2019-01-17T14:15:40.651Z,28.93
2019-01-17T14:18:14.659Z,29.26
2019-01-17T14:20:43.335Z,28.50
2019-01-17T14:23:12.066Z,28.04
2019-01-17T14:25:40.776Z,28.05
2019-01-17T14:28:12.428Z,27.60
2019-01-17T14:30:41.562Z,27.58
2019-01-17T14:33:10.235Z,27.50
2019-01-17T14:35:38.871Z,26.67
2019-01-17T14:38:13.509Z,26.32
2019-01-17T14:40:42.139Z,25.97
2019-01-17T14:43:10.747Z,24.67
2019-01-17T14:45:39.378Z,23.43
2019-01-17T14:48:08.060Z,21.99
2019-01-17T14:50:36.704Z,20.53
2019-01-17T14:53:05.939Z,19.62
2019-01-17T14:55:34.574Z,18.82
2019-01-17T14:58:03.257Z,17.60
2019-01-17T15:00:33.426Z,16.90
2019-01-17T15:03:02.552Z,16.04
2019-01-17T15:05:31.285Z,15.32
2019-01-17T15:07:59.874Z,14.58
2019-01-17T15:10:31.644Z,13.76
2019-01-17T15:13:00.275Z,13.03
2019-01-17T15:15:29.667Z,12.33
2019-01-17T15:17:58.564Z,11.56
2019-01-17T15:20:27.204Z,11.15
2019-01-17T15:22:55.875Z,10.81
2019-01-17T15:25:24.602Z,10.16
2019-01-17T15:27:53.910Z,9.84
2019-01-17T15:30:24.939Z,9.75
2019-01-17T15:32:53.768Z,9.68
2019-01-17T15:35:25.395Z,9.44
2019-01-17T15:37:54.024Z,9.33
2019-01-17T15:40:30.273Z,9.31
2019-01-17T15:42:58.830Z,9.06
2019-01-17T15:45:27.526Z,8.77
2019-01-17T15:47:59.226Z,8.58
2019-01-17T15:50:27.893Z,8.45
2019-01-17T15:52:56.523Z,8.23
2019-01-17T15:55:28.373Z,8.01
2019-01-17T15:57:56.929Z,7.82
2019-01-17T16:00:27.881Z,7.68
2019-01-17T16:02:56.876Z,7.54
2019-01-17T16:05:25.606Z,7.47
2019-01-17T16:07:56.938Z,7.32
2019-01-17T16:10:28.290Z,7.51
2019-01-17T16:12:56.874Z,7.45
2019-01-17T16:15:29.099Z,7.42
2019-01-17T16:17:57.862Z,7.40
2019-01-17T16:20:26.488Z,7.32
2019-01-17T16:22:55.250Z,7.30
2019-01-17T16:25:23.939Z,7.26
2019-01-17T16:27:55.334Z,7.20
2019-01-17T16:30:33.815Z,7.17
2019-01-17T16:33:08.245Z,7.14
2019-01-17T16:35:39.934Z,7.09
2019-01-17T16:38:08.568Z,6.92
2019-01-17T16:40:37.314Z,7.00
2019-01-17T16:43:05.984Z,6.98
2019-01-17T16:45:35.544Z,6.85
2019-01-17T16:48:07.570Z,6.72
2019-01-17T16:50:38.974Z,6.85
2019-01-17T16:53:07.594Z,6.82
2019-01-17T16:55:36.269Z,6.83
2019-01-17T16:58:07.971Z,6.83
2019-01-17T17:00:38.995Z,6.80
2019-01-17T17:03:10.748Z,6.71
2019-01-17T17:05:42.432Z,6.61
2019-01-17T17:08:12.285Z,6.60
2019-01-17T17:10:41.130Z,6.55
2019-01-17T17:13:09.771Z,6.50
2019-01-17T17:15:39.092Z,6.40
2019-01-17T17:18:08.648Z,6.29
2019-01-17T17:20:37.272Z,6.19
2019-01-17T17:23:05.937Z,6.14
2019-01-17T17:25:34.629Z,6.17
2019-01-17T17:28:07.578Z,6.11
2019-01-17T17:30:39.003Z,6.09
2019-01-17T17:33:07.665Z,6.05
2019-01-17T17:35:36.365Z,5.98
2019-01-17T17:38:05.429Z,5.77
2019-01-17T17:40:34.041Z,5.83
2019-01-17T17:43:09.938Z,5.87
2019-01-17T17:45:38.503Z,5.77
2019-01-17T17:48:07.182Z,5.67
2019-01-17T17:50:35.660Z,5.56
2019-01-17T17:53:04.323Z,5.18
2019-01-17T17:55:36.878Z,4.72
2019-01-17T17:58:05.602Z,4.51
2019-01-17T18:00:35.918Z,4.43
2019-01-17T18:03:04.536Z,4.08
2019-01-17T18:05:33.278Z,3.87
2019-01-17T18:08:01.940Z,3.78
2019-01-17T18:10:30.570Z,3.64
2019-01-17T18:12:59.279Z,3.35
2019-01-17T18:15:30.732Z,3.00
2019-01-17T18:17:59.458Z,2.49
2019-01-17T18:20:28.137Z,2.48
2019-01-17T18:22:57.168Z,2.51
2019-01-17T18:25:25.844Z,2.62
2019-01-17T18:27:54.486Z,2.62
2019-01-17T18:30:32.441Z,2.62
2019-01-17T18:33:01.074Z,2.52
2019-01-17T18:35:29.799Z,2.29
2019-01-17T18:38:02.556Z,2.15
2019-01-17T18:40:37.632Z,2.08
2019-01-17T18:43:11.692Z,1.96
2019-01-17T18:45:43.139Z,1.85
2019-01-17T18:48:12.455Z,1.72
2019-01-17T18:50:41.246Z,1.58
2019-01-17T18:53:09.951Z,1.44
2019-01-17T18:55:42.115Z,1.35
2019-01-17T18:58:15.497Z,0.96
2019-01-17T19:00:42.148Z,0.72
2019-01-17T19:03:11.842Z,0.65
2019-01-17T19:05:40.602Z,0.78
2019-01-17T19:08:10.403Z,0.53
2019-01-17T19:10:39.169Z,0.30
2019-01-17T19:13:09.466Z,0.04
2019-01-17T19:15:38.170Z,0.08
2019-01-17T19:18:11.302Z,0.29
2019-01-17T19:20:40.729Z,0.40
2019-01-17T19:23:14.027Z,0.59
2019-01-17T19:25:51.717Z,0.69
2019-01-17T19:28:28.450Z,0.75
2019-01-17T19:30:57.188Z,0.88
2019-01-17T19:33:27.904Z,0.95
2019-01-17T19:35:56.575Z,1.00
2019-01-17T19:38:25.924Z,0.99
2019-01-17T19:40:54.631Z,1.09
2019-01-17T19:43:25.929Z,1.07
2019-01-17T19:45:58.692Z,0.81
2019-01-17T19:48:29.163Z,0.66
2019-01-17T19:50:57.921Z,0.63
2019-01-17T19:53:28.130Z,0.64
2019-01-17T19:55:59.639Z,0.90
2019-01-17T19:58:30.889Z,1.04
2019-01-17T20:00:59.691Z,1.09
2019-01-17T20:03:28.389Z,1.12
2019-01-17T20:06:01.306Z,1.03
2019-01-17T20:08:30.053Z,0.97
2019-01-17T20:10:58.778Z,1.07
2019-01-17T20:13:31.450Z,1.15
2019-01-17T20:16:00.252Z,1.16
2019-01-17T20:18:29.019Z,1.16
2019-01-17T20:20:57.784Z,1.11
2019-01-17T20:23:26.493Z,1.14
2019-01-17T20:25:55.228Z,1.13
2019-01-17T20:28:23.948Z,1.14
2019-01-17T20:30:52.808Z,1.05
2019-01-17T20:33:24.235Z,1.03
2019-01-17T20:35:56.322Z,1.01
2019-01-17T20:38:28.097Z,1.02
2019-01-17T20:41:00.802Z,1.04
2019-01-17T20:43:35.644Z,1.08
2019-01-17T20:46:04.451Z,1.09
2019-01-17T20:48:34.636Z,1.04
2019-01-17T20:51:03.378Z,0.97
2019-01-17T20:53:32.088Z,0.91
2019-01-17T20:56:02.173Z,0.91
2019-01-17T20:58:32.977Z,0.92
2019-01-17T21:01:18.176Z,0.74
2019-01-17T21:03:48.210Z,0.66
2019-01-17T21:06:16.837Z,0.66
2019-01-17T21:08:51.794Z,0.61
2019-01-17T21:11:27.790Z,0.54
2019-01-17T21:13:56.471Z,0.54
2019-01-17T21:16:25.104Z,0.53
2019-01-17T21:18:53.810Z,0.45
2019-01-17T21:21:22.414Z,0.41
2019-01-17T21:23:50.963Z,0.40
2019-01-17T21:26:19.524Z,0.41
2019-01-17T21:28:49.201Z,0.39
2019-01-17T21:31:18.640Z,0.25
2019-01-17T21:33:50.019Z,0.30
2019-01-17T21:36:18.641Z,0.31
2019-01-17T21:38:47.316Z,0.27
2019-01-17T21:41:15.878Z,0.18
2019-01-17T21:43:44.476Z,0.14
2019-01-17T21:46:13.107Z,0.06
2019-01-17T21:48:41.694Z,0.02
2019-01-17T21:51:10.376Z,-0.04
2019-01-17T21:53:45.753Z,-0.12
2019-01-17T21:56:14.529Z,-0.11
2019-01-17T21:58:43.151Z,-0.14
2019-01-17T22:01:11.802Z,-0.11
2019-01-17T22:03:53.887Z,-0.12
2019-01-17T22:06:22.617Z,-0.17
2019-01-17T22:08:51.230Z,-0.20
2019-01-17T22:11:21.346Z,-0.24
2019-01-17T22:13:50.016Z,-0.22
2019-01-17T22:16:18.664Z,-0.25
2019-01-17T22:18:47.326Z,-0.32
2019-01-17T22:21:15.953Z,-0.23
2019-01-17T22:23:44.652Z,-0.19
2019-01-17T22:26:13.276Z,-0.17
2019-01-17T22:28:41.926Z,-0.24
2019-01-17T22:31:10.567Z,-0.41
2019-01-17T22:33:39.124Z,-0.29
2019-01-17T22:36:07.791Z,-0.39
2019-01-17T22:38:36.465Z,-0.44
2019-01-17T22:41:05.319Z,-0.56
2019-01-17T22:43:33.953Z,-0.67
2019-01-17T22:46:02.503Z,-1.05
2019-01-17T22:48:42.908Z,-1.07
2019-01-17T22:51:17.471Z,-0.95
2019-01-17T22:53:46.986Z,-0.89
2019-01-17T22:56:15.760Z,-0.80
2019-01-17T22:58:44.404Z,-0.70
2019-01-17T23:01:22.136Z,-0.65
2019-01-17T23:03:50.832Z,-0.64
2019-01-17T23:06:19.486Z,-0.63
2019-01-17T23:08:54.264Z,-0.71
2019-01-17T23:11:29.374Z,-0.72
2019-01-17T23:13:53.314Z,-0.77
2019-01-17T23:16:25.442Z,-0.75
2019-01-17T23:18:54.130Z,-0.79
2019-01-17T23:21:22.752Z,-0.74
2019-01-17T23:23:51.419Z,-0.76
2019-01-17T23:26:23.954Z,-0.81
2019-01-17T23:28:52.650Z,-0.95
2019-01-17T23:31:21.297Z,-0.99
2019-01-17T23:33:56.045Z,-0.98
2019-01-17T23:36:24.779Z,-0.94
2019-01-17T23:39:01.808Z,-0.91
2019-01-17T23:41:30.447Z,-0.88
2019-01-17T23:43:59.239Z,-0.83
2019-01-17T23:46:35.299Z,-0.80
2019-01-17T23:49:18.100Z,-0.77
2019-01-17T23:51:46.757Z,-0.78
2019-01-17T23:54:22.976Z,-0.84
2019-01-17T23:56:51.637Z,-0.86
2019-01-17T23:59:22.715Z,-0.85
